createdAt,value
2019-02-20T00:00:25.892Z,5.20
2019-02-20T00:02:54.691Z,5.20
2019-02-20T00:05:23.532Z,5.20
2019-02-20T00:07:52.303Z,5.30
2019-02-20T00:10:21.137Z,5.30
2019-02-20T00:12:49.893Z,5.30
2019-02-20T00:15:18.756Z,5.40
2019-02-20T00:17:47.508Z,5.40
2019-02-20T00:20:16.279Z,5.50
2019-02-20T00:22:45.055Z,5.50
2019-02-20T00:25:13.791Z,5.50
2019-02-20T00:27:42.521Z,5.60
2019-02-20T00:30:11.743Z,5.60
2019-02-20T00:32:40.604Z,5.60
2019-02-20T00:35:09.357Z,5.50
2019-02-20T00:37:38.111Z,5.50
2019-02-20T00:40:09.417Z,5.50
2019-02-20T00:42:38.221Z,5.50
2019-02-20T00:45:17.722Z,5.50
2019-02-20T00:47:54.081Z,5.50
2019-02-20T00:50:24.557Z,5.60
2019-02-20T00:52:54.913Z,5.60
2019-02-20T00:55:23.793Z,5.60
2019-02-20T00:57:52.465Z,5.60
2019-02-20T01:00:21.287Z,5.60
2019-02-20T01:02:50.128Z,5.60
2019-02-20T01:05:18.889Z,5.50
2019-02-20T01:07:47.568Z,5.40
2019-02-20T01:10:16.283Z,5.40
2019-02-20T01:12:44.991Z,5.40
2019-02-20T01:15:13.777Z,5.40
2019-02-20T01:17:42.511Z,5.30
2019-02-20T01:20:11.320Z,5.20
2019-02-20T01:22:40.085Z,5.20
2019-02-20T01:25:08.986Z,5.20
2019-02-20T01:27:37.936Z,5.10
2019-02-20T01:30:11.927Z,5.10
2019-02-20T01:32:40.833Z,5.00
2019-02-20T01:35:09.653Z,5.00
2019-02-20T01:37:38.445Z,5.00
2019-02-20T01:40:08.086Z,4.90
2019-02-20T01:42:36.983Z,4.90
2019-02-20T01:45:07.346Z,4.90
2019-02-20T01:47:36.218Z,4.90
2019-02-20T01:50:05.933Z,4.90
2019-02-20T01:52:34.638Z,4.90
2019-02-20T01:55:03.535Z,5.10
2019-02-20T01:57:32.357Z,5.20
2019-02-20T02:00:01.167Z,5.20
2019-02-20T02:02:29.934Z,5.30
2019-02-20T02:04:58.838Z,5.40
2019-02-20T02:07:27.638Z,5.50
2019-02-20T02:09:56.461Z,5.60
2019-02-20T02:12:25.349Z,5.60
2019-02-20T02:14:54.308Z,5.70
2019-02-20T02:17:23.042Z,5.80
2019-02-20T02:19:51.872Z,5.90
2019-02-20T02:22:20.596Z,6.10
2019-02-20T02:24:49.333Z,6.10
2019-02-20T02:27:18.104Z,6.30
2019-02-20T02:29:46.914Z,6.30
2019-02-20T02:32:15.752Z,6.30
2019-02-20T02:34:44.626Z,6.30
2019-02-20T02:37:13.411Z,6.30
2019-02-20T02:39:42.218Z,6.30
2019-02-20T02:42:11.051Z,6.30
2019-02-20T02:44:39.891Z,6.20
2019-02-20T02:47:08.686Z,6.20
2019-02-20T02:49:37.495Z,6.20
2019-02-20T02:52:06.237Z,6.10
2019-02-20T02:54:34.914Z,6.10
2019-02-20T02:57:03.814Z,6.10
2019-02-20T02:59:32.501Z,6.00
2019-02-20T03:02:01.192Z,6.00
2019-02-20T03:04:30.016Z,6.00
2019-02-20T03:06:58.724Z,6.00
2019-02-20T03:09:27.460Z,6.00
2019-02-20T03:11:57.238Z,6.00
2019-02-20T03:14:26.022Z,6.00
2019-02-20T03:16:54.859Z,6.00
2019-02-20T03:19:23.642Z,6.00
2019-02-20T03:21:52.335Z,6.10
2019-02-20T03:24:21.111Z,6.00
2019-02-20T03:26:49.875Z,6.00
2019-02-20T03:29:18.604Z,6.00
2019-02-20T03:31:47.350Z,6.00
2019-02-20T03:34:16.209Z,6.00
2019-02-20T03:36:45.001Z,5.90
2019-02-20T03:39:13.742Z,5.90
2019-02-20T03:41:42.571Z,5.90
2019-02-20T03:44:11.234Z,5.90
2019-02-20T03:46:39.921Z,5.90
2019-02-20T03:49:08.801Z,5.90
2019-02-20T03:51:37.547Z,5.90
2019-02-20T03:54:06.329Z,6.00
2019-02-20T03:56:35.133Z,5.90
2019-02-20T03:59:03.947Z,6.00
2019-02-20T04:01:32.813Z,5.90
2019-02-20T04:04:01.616Z,5.90
2019-02-20T04:06:30.464Z,5.90
2019-02-20T04:08:59.048Z,5.90
2019-02-20T04:11:27.770Z,5.90
2019-02-20T04:13:56.600Z,5.80
2019-02-20T04:16:25.417Z,5.80
2019-02-20T04:18:54.283Z,5.80
2019-02-20T04:21:23.111Z,5.90
2019-02-20T04:24:01.558Z,5.90
2019-02-20T04:26:22.439Z,5.90
2019-02-20T04:28:51.168Z,5.90
2019-02-20T04:31:19.980Z,5.90
2019-02-20T04:33:48.809Z,5.90
2019-02-20T04:36:17.537Z,5.90
2019-02-20T04:38:46.311Z,5.90
2019-02-20T04:41:15.048Z,5.90
2019-02-20T04:43:43.850Z,5.80
2019-02-20T04:46:12.536Z,5.80
2019-02-20T04:48:41.475Z,5.80
2019-02-20T04:51:10.236Z,5.70
2019-02-20T04:53:39.024Z,5.70
2019-02-20T04:56:07.834Z,5.70
2019-02-20T04:58:36.748Z,5.70
2019-02-20T05:01:05.606Z,5.60
2019-02-20T05:03:34.377Z,5.60
2019-02-20T05:06:03.143Z,5.60
2019-02-20T05:08:31.840Z,5.60
2019-02-20T05:11:00.680Z,5.50
2019-02-20T05:13:29.483Z,5.50
2019-02-20T05:15:58.177Z,5.50
2019-02-20T05:18:26.895Z,5.50
2019-02-20T05:20:55.657Z,5.50
2019-02-20T05:23:24.394Z,5.50
2019-02-20T05:25:53.194Z,5.50
2019-02-20T05:28:21.946Z,5.40
2019-02-20T05:30:50.696Z,5.40
2019-02-20T05:33:19.610Z,5.40
2019-02-20T05:35:48.517Z,5.40
2019-02-20T05:38:17.404Z,5.40
2019-02-20T05:40:46.253Z,5.40
2019-02-20T05:43:15.098Z,5.40
2019-02-20T05:45:43.843Z,5.40
2019-02-20T05:48:12.631Z,5.40
2019-02-20T05:50:41.311Z,5.40
2019-02-20T05:53:10.025Z,5.40
2019-02-20T05:55:38.911Z,5.40
2019-02-20T05:58:07.732Z,5.40
2019-02-20T06:00:36.516Z,5.40
2019-02-20T06:03:05.427Z,5.40
2019-02-20T06:05:34.245Z,5.40
2019-02-20T06:08:03.488Z,5.40
2019-02-20T06:10:32.297Z,5.40
2019-02-20T06:13:01.006Z,5.40
2019-02-20T06:15:29.802Z,5.40
2019-02-20T06:17:58.543Z,5.50
2019-02-20T06:20:27.302Z,5.50
2019-02-20T06:22:56.047Z,5.50
2019-02-20T06:25:25.017Z,5.50
2019-02-20T06:27:53.741Z,5.50
2019-02-20T06:30:22.421Z,5.50
2019-02-20T06:32:51.178Z,5.60
2019-02-20T06:35:20.042Z,5.60
2019-02-20T06:37:48.894Z,5.60
2019-02-20T06:40:17.721Z,5.60
2019-02-20T06:42:46.387Z,5.60
2019-02-20T06:45:15.235Z,5.60
2019-02-20T06:47:44.031Z,5.60
2019-02-20T06:50:12.783Z,5.70
2019-02-20T06:52:41.556Z,5.60
2019-02-20T06:55:12.184Z,5.60
2019-02-20T06:57:41.576Z,5.70
2019-02-20T07:00:13.141Z,5.70
2019-02-20T07:02:42.221Z,5.70
2019-02-20T07:05:34.885Z,5.70
2019-02-20T07:08:23.128Z,5.80
2019-02-20T07:11:19.017Z,5.80
2019-02-20T07:14:10.296Z,5.80
2019-02-20T07:17:01.400Z,5.80
2019-02-20T07:19:38.938Z,5.90
2019-02-20T07:22:36.424Z,5.90
2019-02-20T07:25:24.853Z,5.90
2019-02-20T07:28:13.193Z,5.90
2019-02-20T07:30:41.931Z,6.00
2019-02-20T07:33:12.115Z,6.00
2019-02-20T07:35:41.055Z,6.00
2019-02-20T07:38:09.941Z,6.00
2019-02-20T07:40:38.860Z,6.10
2019-02-20T07:43:07.848Z,6.10
2019-02-20T07:45:36.654Z,6.10
2019-02-20T07:48:05.509Z,6.20
2019-02-20T07:50:34.260Z,6.20
2019-02-20T07:53:03.063Z,6.30
2019-02-20T07:55:31.938Z,6.30
2019-02-20T07:58:00.690Z,6.30
2019-02-20T08:00:29.695Z,6.40
2019-02-20T08:02:58.486Z,6.40
2019-02-20T08:05:27.355Z,6.50
2019-02-20T08:07:56.215Z,6.50
2019-02-20T08:10:25.091Z,6.60
2019-02-20T08:12:53.874Z,6.60
2019-02-20T08:15:23.342Z,6.70
2019-02-20T08:17:52.030Z,6.70
2019-02-20T08:20:20.934Z,6.80
2019-02-20T08:22:49.726Z,6.90
2019-02-20T08:25:22.926Z,7.00
2019-02-20T08:27:48.912Z,7.10
2019-02-20T08:30:17.802Z,7.20
2019-02-20T08:32:46.426Z,7.20
2019-02-20T08:35:16.532Z,7.30
2019-02-20T08:37:45.358Z,7.30
2019-02-20T08:40:15.430Z,7.40
2019-02-20T08:42:44.098Z,7.50
2019-02-20T08:45:13.305Z,7.50
2019-02-20T08:47:42.087Z,7.50
2019-02-20T08:50:13.477Z,7.60
2019-02-20T08:52:42.406Z,7.60
2019-02-20T08:55:11.454Z,7.60
2019-02-20T08:57:40.320Z,7.60
2019-02-20T09:00:14.062Z,7.60
2019-02-20T09:02:42.850Z,7.60
2019-02-20T09:05:12.523Z,7.70
2019-02-20T09:07:41.425Z,7.70
2019-02-20T09:10:12.346Z,7.70
2019-02-20T09:12:41.220Z,7.70
2019-02-20T09:15:12.387Z,7.70
2019-02-20T09:17:41.076Z,7.70
2019-02-20T09:20:11.583Z,7.70
2019-02-20T09:22:40.509Z,7.80
2019-02-20T09:25:19.435Z,7.70
2019-02-20T09:27:42.684Z,7.80
2019-02-20T09:30:13.868Z,7.80
2019-02-20T09:32:44.337Z,7.90
2019-02-20T09:35:13.134Z,7.80
2019-02-20T09:37:41.916Z,7.90
2019-02-20T09:40:18.039Z,7.90
2019-02-20T09:42:49.094Z,7.90
2019-02-20T09:45:17.967Z,7.90
2019-02-20T09:47:46.650Z,7.90
2019-02-20T09:50:15.507Z,7.90
2019-02-20T09:52:52.064Z,7.90
2019-02-20T09:55:15.084Z,7.90
2019-02-20T09:57:43.833Z,7.90
2019-02-20T10:00:17.399Z,7.90
2019-02-20T10:02:47.384Z,7.90
2019-02-20T10:05:16.469Z,7.90
2019-02-20T10:07:45.225Z,8.00
2019-02-20T10:10:13.977Z,7.90
2019-02-20T10:12:42.686Z,7.90
2019-02-20T10:15:19.028Z,7.90
2019-02-20T10:17:47.813Z,7.90
2019-02-20T10:20:16.577Z,7.90
2019-02-20T10:22:45.327Z,7.90
2019-02-20T10:25:14.421Z,7.90
2019-02-20T10:27:43.263Z,7.90
2019-02-20T10:30:15.092Z,8.00
2019-02-20T10:32:43.991Z,8.00
2019-02-20T10:35:13.193Z,8.00
2019-02-20T10:37:42.107Z,8.00
2019-02-20T10:40:12.137Z,8.10
2019-02-20T10:42:40.903Z,8.10
2019-02-20T10:45:14.153Z,8.10
2019-02-20T10:47:42.969Z,8.10
2019-02-20T10:50:13.059Z,8.10
2019-02-20T10:52:41.793Z,8.10
2019-02-20T10:55:10.855Z,8.10
2019-02-20T10:57:39.674Z,8.20
2019-02-20T11:00:23.508Z,8.20
2019-02-20T11:02:46.451Z,8.20
2019-02-20T11:05:15.253Z,8.10
2019-02-20T11:07:44.018Z,8.10
2019-02-20T11:10:14.274Z,8.10
2019-02-20T11:12:43.075Z,8.20
2019-02-20T11:15:13.142Z,8.20
2019-02-20T11:17:42.094Z,8.20
2019-02-20T11:20:13.579Z,8.30
2019-02-20T11:22:42.230Z,8.30
2019-02-20T11:25:12.607Z,8.30
2019-02-20T11:27:41.352Z,8.20
2019-02-20T11:30:19.004Z,8.30
2019-02-20T11:32:47.952Z,8.30
2019-02-20T11:35:17.842Z,8.30
2019-02-20T11:37:46.792Z,8.40
2019-02-20T11:40:15.554Z,8.50
2019-02-20T11:42:44.409Z,8.50
2019-02-20T11:45:17.219Z,8.40
2019-02-20T11:47:46.117Z,8.40
2019-02-20T11:50:15.907Z,8.30
2019-02-20T11:52:44.744Z,8.30
2019-02-20T11:55:14.945Z,8.20
2019-02-20T11:57:44.915Z,8.20
2019-02-20T12:00:18.357Z,8.20
2019-02-20T12:02:47.158Z,8.20
2019-02-20T12:05:16.649Z,8.20
2019-02-20T12:07:45.480Z,8.20
2019-02-20T12:10:16.590Z,8.20
2019-02-20T12:12:45.374Z,8.20
2019-02-20T12:15:14.378Z,8.20
2019-02-20T12:17:43.049Z,8.20
2019-02-20T12:20:12.037Z,8.20
2019-02-20T12:22:40.905Z,8.20
2019-02-20T12:25:10.522Z,8.30
2019-02-20T12:27:39.367Z,8.30
2019-02-20T12:30:10.598Z,8.30
2019-02-20T12:32:39.480Z,8.30
2019-02-20T12:35:09.469Z,8.40
2019-02-20T12:37:38.487Z,8.40
2019-02-20T12:40:11.286Z,8.50
2019-02-20T12:42:41.858Z,8.50
2019-02-20T12:45:10.733Z,8.50
2019-02-20T12:47:40.948Z,8.60
2019-02-20T12:50:12.432Z,8.60
2019-02-20T12:52:41.358Z,8.70
2019-02-20T12:55:10.544Z,8.70
2019-02-20T12:57:39.472Z,8.70
2019-02-20T13:00:15.491Z,8.70
2019-02-20T13:02:44.327Z,8.70
2019-02-20T13:05:13.068Z,8.80
2019-02-20T13:07:42.187Z,8.80
2019-02-20T13:10:11.217Z,8.90
2019-02-20T13:12:42.044Z,8.90
2019-02-20T13:15:12.029Z,8.90
2019-02-20T13:17:40.995Z,8.90
2019-02-20T13:20:11.266Z,9.00
2019-02-20T13:22:40.624Z,9.00
2019-02-20T13:25:10.313Z,9.00
2019-02-20T13:27:40.278Z,9.00
2019-02-20T13:30:12.183Z,9.00
2019-02-20T13:32:41.118Z,9.00
2019-02-20T13:35:10.039Z,9.00
2019-02-20T13:37:39.428Z,9.00
2019-02-20T13:40:12.790Z,9.10
2019-02-20T13:42:41.731Z,9.10
2019-02-20T13:45:10.512Z,9.10
2019-02-20T13:47:42.775Z,9.10
2019-02-20T13:50:12.616Z,9.10
2019-02-20T13:52:42.381Z,9.10
2019-02-20T13:55:11.268Z,9.10
2019-02-20T13:57:40.178Z,9.10
2019-02-20T14:00:13.545Z,9.10
2019-02-20T14:02:42.635Z,9.00
2019-02-20T14:05:12.768Z,9.00
2019-02-20T14:07:42.122Z,9.00
2019-02-20T14:10:13.425Z,9.00
2019-02-20T14:12:42.191Z,8.90
2019-02-20T14:15:12.586Z,8.90
2019-02-20T14:17:41.598Z,8.90
2019-02-20T14:20:12.042Z,8.90
2019-02-20T14:22:45.497Z,8.90
2019-02-20T14:25:15.057Z,8.90
2019-02-20T14:27:46.001Z,8.90
2019-02-20T14:30:15.515Z,8.90
2019-02-20T14:32:45.331Z,8.80
2019-02-20T14:35:15.170Z,8.80
2019-02-20T14:37:44.047Z,8.80
2019-02-20T14:40:15.474Z,8.70
2019-02-20T14:42:44.394Z,8.70
2019-02-20T14:45:16.265Z,8.70
2019-02-20T14:47:45.155Z,8.70
2019-02-20T14:50:14.183Z,8.70
2019-02-20T14:52:43.753Z,8.70
2019-02-20T14:55:15.736Z,8.70
2019-02-20T14:57:46.014Z,8.60
2019-02-20T15:00:17.491Z,8.70
2019-02-20T15:02:48.718Z,8.70
2019-02-20T15:05:17.999Z,8.70
2019-02-20T15:07:46.847Z,8.70
2019-02-20T15:10:16.705Z,8.60
2019-02-20T15:12:46.685Z,8.60
2019-02-20T15:15:18.909Z,8.60
2019-02-20T15:17:50.528Z,8.50
2019-02-20T15:20:19.537Z,8.50
2019-02-20T15:22:48.362Z,8.50
2019-02-20T15:25:17.358Z,8.40
2019-02-20T15:27:47.070Z,8.40
2019-02-20T15:30:16.808Z,8.30
2019-02-20T15:32:48.279Z,8.30
2019-02-20T15:35:17.242Z,8.20
2019-02-20T15:37:46.895Z,8.20
2019-02-20T15:40:15.875Z,8.20
2019-02-20T15:42:44.832Z,8.20
2019-02-20T15:45:13.803Z,8.10
2019-02-20T15:47:42.642Z,8.10
2019-02-20T15:50:15.876Z,8.10
2019-02-20T15:52:45.883Z,8.00
2019-02-20T15:55:16.372Z,8.00
2019-02-20T15:57:45.863Z,8.00
2019-02-20T16:00:20.100Z,7.90
2019-02-20T16:02:49.030Z,7.90
2019-02-20T16:05:19.327Z,7.90
2019-02-20T16:07:49.785Z,7.90
2019-02-20T16:10:21.703Z,7.90
2019-02-20T16:12:52.240Z,7.80
2019-02-20T16:15:21.428Z,7.80
2019-02-20T16:17:50.439Z,7.70
2019-02-20T16:20:19.244Z,7.70
2019-02-20T16:22:48.188Z,7.70
2019-02-20T16:25:18.779Z,7.60
2019-02-20T16:27:49.253Z,7.60
2019-02-20T16:30:19.537Z,7.50
2019-02-20T16:32:51.331Z,7.50
2019-02-20T16:35:19.350Z,7.40
2019-02-20T16:37:48.559Z,7.30
2019-02-20T16:40:17.472Z,7.30
2019-02-20T16:42:48.561Z,7.30
2019-02-20T16:45:24.963Z,7.30
2019-02-20T16:47:54.273Z,7.40
2019-02-20T16:50:23.104Z,7.40
2019-02-20T16:52:52.025Z,7.40
2019-02-20T16:55:22.569Z,7.40
2019-02-20T16:57:56.710Z,7.30
2019-02-20T17:00:22.649Z,7.30
2019-02-20T17:02:51.952Z,7.30
2019-02-20T17:05:20.855Z,7.30
2019-02-20T17:07:49.786Z,7.30
2019-02-20T17:10:18.977Z,7.20
2019-02-20T17:12:47.769Z,7.20
2019-02-20T17:15:17.660Z,7.20
2019-02-20T17:17:46.731Z,7.10
2019-02-20T17:20:21.055Z,7.10
2019-02-20T17:22:49.902Z,7.00
2019-02-20T17:25:19.685Z,7.00
2019-02-20T17:27:48.694Z,7.00
2019-02-20T17:30:18.922Z,6.90
2019-02-20T17:32:48.160Z,6.90
2019-02-20T17:35:17.396Z,6.90
2019-02-20T17:37:46.384Z,6.90
2019-02-20T17:40:16.043Z,6.90
2019-02-20T17:42:44.991Z,6.90
2019-02-20T17:45:20.112Z,6.90
2019-02-20T17:47:49.481Z,6.90
2019-02-20T17:50:25.619Z,6.80
2019-02-20T17:52:54.517Z,6.80
2019-02-20T17:55:23.300Z,6.90
2019-02-20T17:57:52.067Z,6.80
2019-02-20T18:00:32.014Z,6.80
2019-02-20T18:03:00.726Z,6.80
2019-02-20T18:05:29.521Z,6.80
2019-02-20T18:07:58.698Z,6.80
2019-02-20T18:10:27.666Z,6.70
2019-02-20T18:12:56.424Z,6.70
2019-02-20T18:15:25.379Z,6.60
2019-02-20T18:17:54.242Z,6.60
2019-02-20T18:20:25.036Z,6.50
2019-02-20T18:22:53.423Z,6.50
2019-02-20T18:25:22.328Z,6.50
2019-02-20T18:27:52.433Z,6.50
2019-02-20T18:30:21.394Z,6.50
2019-02-20T18:32:50.320Z,6.50
2019-02-20T18:35:21.171Z,6.50
2019-02-20T18:37:50.028Z,6.50
2019-02-20T18:40:19.104Z,6.40
2019-02-20T18:42:47.958Z,6.40
2019-02-20T18:45:17.065Z,6.40
2019-02-20T18:47:45.977Z,6.30
2019-02-20T18:50:15.949Z,6.30
2019-02-20T18:52:44.969Z,6.30
2019-02-20T18:55:14.442Z,6.30
2019-02-20T18:57:43.207Z,6.20
2019-02-20T19:00:19.640Z,6.20
2019-02-20T19:02:48.563Z,6.20
2019-02-20T19:05:18.796Z,6.30
2019-02-20T19:07:48.230Z,6.30
2019-02-20T19:10:22.702Z,6.40
2019-02-20T19:13:12.750Z,6.40
2019-02-20T19:16:01.978Z,6.40
2019-02-20T19:18:41.455Z,6.50
2019-02-20T19:21:31.712Z,6.50
2019-02-20T19:24:35.650Z,6.50
2019-02-20T19:27:07.321Z,6.50
2019-02-20T19:29:53.957Z,6.50
2019-02-20T19:32:45.491Z,6.50
2019-02-20T19:35:33.956Z,6.40
2019-02-20T19:38:37.613Z,6.40
2019-02-20T19:41:36.885Z,6.40
2019-02-20T19:44:20.574Z,6.30
2019-02-20T19:47:10.484Z,6.30
2019-02-20T19:50:14.163Z,6.20
2019-02-20T19:53:07.175Z,6.20
2019-02-20T19:55:50.799Z,6.20
2019-02-20T19:58:40.828Z,6.20
2019-02-20T20:01:26.957Z,6.20
2019-02-20T20:04:04.463Z,6.20
2019-02-20T20:06:38.812Z,6.20
2019-02-20T20:09:19.525Z,6.20
2019-02-20T20:12:06.415Z,6.20
2019-02-20T20:15:02.115Z,6.20
2019-02-20T20:17:45.912Z,6.20
2019-02-20T20:20:26.751Z,6.20
2019-02-20T20:23:19.825Z,6.20
2019-02-20T20:25:51.717Z,6.20
2019-02-20T20:28:32.264Z,6.10
2019-02-20T20:31:12.674Z,6.10
2019-02-20T20:33:49.929Z,6.00
2019-02-20T20:36:36.669Z,6.00
2019-02-20T20:39:42.027Z,6.00
2019-02-20T20:42:14.037Z,5.90
2019-02-20T20:44:51.727Z,5.90
2019-02-20T20:47:41.850Z,5.90
2019-02-20T20:50:19.592Z,5.80
2019-02-20T20:52:51.338Z,5.80
2019-02-20T20:55:32.095Z,5.80
2019-02-20T20:58:22.757Z,5.80
2019-02-20T21:01:19.687Z,5.70
2019-02-20T21:04:00.155Z,5.70
2019-02-20T21:06:31.945Z,5.70
2019-02-20T21:09:04.368Z,5.70
2019-02-20T21:11:39.129Z,5.70
2019-02-20T21:14:19.428Z,5.70
2019-02-20T21:17:09.609Z,5.70
2019-02-20T21:19:44.266Z,5.80
2019-02-20T21:22:35.339Z,5.80
2019-02-20T21:25:18.609Z,5.90
2019-02-20T21:28:15.920Z,5.90
2019-02-20T21:30:53.534Z,5.90
2019-02-20T21:33:49.103Z,5.90
2019-02-20T21:36:23.443Z,5.90
2019-02-20T21:39:00.763Z,6.00
2019-02-20T21:41:32.708Z,6.00
2019-02-20T21:44:13.493Z,6.00
2019-02-20T21:46:51.235Z,6.00
2019-02-20T21:49:35.734Z,6.00
2019-02-20T21:52:07.703Z,6.00
2019-02-20T21:55:01.986Z,6.00
2019-02-20T21:57:42.902Z,6.10
2019-02-20T22:00:29.570Z,6.00
2019-02-20T22:03:07.180Z,6.00
2019-02-20T22:05:45.029Z,6.10
2019-02-20T22:08:19.913Z,6.00
2019-02-20T22:11:08.228Z,6.00
2019-02-20T22:13:46.208Z,6.10
2019-02-20T22:16:20.616Z,6.10
2019-02-20T22:19:01.059Z,6.10
2019-02-20T22:21:41.963Z,6.20
2019-02-20T22:24:16.560Z,6.20
2019-02-20T22:26:56.509Z,6.30
2019-02-20T22:29:28.285Z,6.30
2019-02-20T22:32:02.996Z,6.40
2019-02-20T22:34:37.668Z,6.40
2019-02-20T22:37:14.887Z,6.50
2019-02-20T22:40:01.482Z,6.50
2019-02-20T22:42:54.124Z,6.50
2019-02-20T22:45:41.132Z,6.60
2019-02-20T22:48:37.041Z,6.50
2019-02-20T22:51:09.054Z,6.50
2019-02-20T22:54:14.488Z,6.50
2019-02-20T22:57:03.183Z,6.50
2019-02-20T22:59:37.497Z,6.50
2019-02-20T23:02:31.692Z,6.50
2019-02-20T23:05:18.555Z,6.50
2019-02-20T23:07:52.960Z,6.50
2019-02-20T23:10:30.258Z,6.40
2019-02-20T23:13:13.787Z,6.40
2019-02-20T23:15:43.351Z,6.40
2019-02-20T23:18:12.396Z,6.40
2019-02-20T23:20:41.146Z,6.30
2019-02-20T23:23:10.034Z,6.30
2019-02-20T23:25:38.840Z,6.30
2019-02-20T23:28:07.653Z,6.30
2019-02-20T23:30:36.499Z,6.30
2019-02-20T23:33:05.363Z,6.30
2019-02-20T23:35:34.241Z,6.30
2019-02-20T23:38:03.037Z,6.30
2019-02-20T23:40:31.896Z,6.30
2019-02-20T23:43:00.719Z,6.20
2019-02-20T23:45:29.498Z,6.20
2019-02-20T23:47:58.347Z,6.20
2019-02-20T23:50:27.249Z,6.20
2019-02-20T23:52:56.214Z,6.20
2019-02-20T23:55:25.134Z,6.20
2019-02-20T23:57:54.512Z,6.20
